sensor_id;sensor_type;location;lat;lon;timestamp;temperature;humidity
1221;DHT22;600;48.044;7.878;2022-12-05T05:35:15;7.50;99.90
1221;DHT22;600;48.044;7.878;2022-12-05T05:37:42;7.50;99.90
1221;DHT22;600;48.044;7.878;2022-12-05T05:40:11;7.60;99.90
1221;DHT22;600;48.044;7.878;2022-12-05T05:42:41;7.70;99.90
1221;DHT22;600;48.044;7.878;2022-12-05T05:45:09;7.80;99.90
1221;DHT22;600;48.044;7.878;2022-12-05T05:47:36;7.90;99.90
1221;DHT22;600;48.044;7.878;2022-12-05T05:50:04;8.10;99.90
1221;DHT22;600;48.044;7.878;2022-12-05T05:52:32;8.10;99.90
1221;DHT22;600;48.044;7.878;2022-12-05T05:54:59;8.20;99.90
1221;DHT22;600;48.044;7.878;2022-12-05T05:57:26;8.30;99.90
1221;DHT22;600;48.044;7.878;2022-12-05T06:03:15;8.30;99.90
1221;DHT22;600;48.044;7.878;2022-12-05T06:05:42;8.20;99.90
1221;DHT22;600;48.044;7.878;2022-12-05T06:08:10;8.10;99.90
1221;DHT22;600;48.044;7.878;2022-12-05T06:10:37;7.90;99.90
1221;DHT22;600;48.044;7.878;2022-12-05T06:13:04;7.90;99.90
1221;DHT22;600;48.044;7.878;2022-12-05T06:15:31;7.80;99.90
1221;DHT22;600;48.044;7.878;2022-12-05T06:17:57;7.80;99.90
1221;DHT22;600;48.044;7.878;2022-12-05T06:20:24;7.70;99.90
1221;DHT22;600;48.044;7.878;2022-12-05T06:26:15;7.80;99.90
1221;DHT22;600;48.044;7.878;2022-12-05T06:28:43;7.60;99.90
1221;DHT22;600;48.044;7.878;2022-12-05T06:31:11;7.70;99.90
1221;DHT22;600;48.044;7.878;2022-12-05T06:33:38;7.70;99.90
1221;DHT22;600;48.044;7.878;2022-12-05T06:36:07;7.60;99.90
1221;DHT22;600;48.044;7.878;2022-12-05T06:38:34;7.60;99.90
1221;DHT22;600;48.044;7.878;2022-12-05T06:41:04;7.50;99.90
1221;DHT22;600;48.044;7.878;2022-12-05T13:23:26;8.70;99.90
1221;DHT22;600;48.044;7.878;2022-12-05T13:26:10;8.70;99.90
1221;DHT22;600;48.044;7.878;2022-12-05T13:28:39;8.90;99.90
1221;DHT22;600;48.044;7.878;2022-12-05T13:31:12;8.90;99.90
1221;DHT22;600;48.044;7.878;2022-12-05T13:33:44;9.00;99.90
1221;DHT22;600;48.044;7.878;2022-12-05T13:36:13;9.10;99.90
1221;DHT22;600;48.044;7.878;2022-12-05T13:38:59;9.10;99.90
1221;DHT22;600;48.044;7.878;2022-12-05T13:41:47;9.10;99.90
1221;DHT22;600;48.044;7.878;2022-12-05T13:44:36;9.10;99.90
1221;DHT22;600;48.044;7.878;2022-12-05T13:47:05;9.10;99.90
1221;DHT22;600;48.044;7.878;2022-12-05T13:49:40;9.00;99.90
1221;DHT22;600;48.044;7.878;2022-12-05T13:52:12;9.20;99.90
1221;DHT22;600;48.044;7.878;2022-12-05T13:54:43;9.30;99.90
1221;DHT22;600;48.044;7.878;2022-12-05T14:00:29;9.20;99.90
1221;DHT22;600;48.044;7.878;2022-12-05T14:03:02;9.30;99.90
1221;DHT22;600;48.044;7.878;2022-12-05T14:05:41;9.30;99.90
1221;DHT22;600;48.044;7.878;2022-12-05T14:11:11;9.40;99.90
1221;DHT22;600;48.044;7.878;2022-12-05T14:13:42;9.40;99.90
1221;DHT22;600;48.044;7.878;2022-12-05T14:19:53;9.50;99.90
1221;DHT22;600;48.044;7.878;2022-12-05T14:22:52;9.40;99.90
1221;DHT22;600;48.044;7.878;2022-12-05T14:25:50;9.30;99.90
1221;DHT22;600;48.044;7.878;2022-12-05T14:28:34;9.50;99.90
1221;DHT22;600;48.044;7.878;2022-12-05T14:31:14;9.50;99.90
1221;DHT22;600;48.044;7.878;2022-12-05T14:33:45;9.40;99.90
1221;DHT22;600;48.044;7.878;2022-12-05T14:36:16;9.30;99.90
1221;DHT22;600;48.044;7.878;2022-12-05T14:38:44;9.20;99.90
1221;DHT22;600;48.044;7.878;2022-12-05T14:41:13;9.20;99.90
1221;DHT22;600;48.044;7.878;2022-12-05T14:43:41;9.20;99.90
1221;DHT22;600;48.044;7.878;2022-12-05T14:46:15;9.30;99.90
1221;DHT22;600;48.044;7.878;2022-12-05T14:48:42;9.30;99.90
1221;DHT22;600;48.044;7.878;2022-12-05T14:54:17;9.40;99.90
1221;DHT22;600;48.044;7.878;2022-12-05T14:56:47;9.40;99.90
1221;DHT22;600;48.044;7.878;2022-12-05T14:59:22;9.40;99.90
1221;DHT22;600;48.044;7.878;2022-12-05T15:01:54;9.40;99.90
1221;DHT22;600;48.044;7.878;2022-12-05T15:04:26;9.30;99.90
1221;DHT22;600;48.044;7.878;2022-12-05T15:06:59;9.30;99.90
1221;DHT22;600;48.044;7.878;2022-12-05T15:09:35;9.30;99.90
1221;DHT22;600;48.044;7.878;2022-12-05T15:12:05;9.30;99.90
1221;DHT22;600;48.044;7.878;2022-12-05T15:14:38;9.30;99.90
1221;DHT22;600;48.044;7.878;2022-12-05T15:17:13;9.30;99.90
1221;DHT22;600;48.044;7.878;2022-12-05T15:19:46;9.20;99.90
1221;DHT22;600;48.044;7.878;2022-12-05T15:22:16;9.20;99.90
1221;DHT22;600;48.044;7.878;2022-12-05T15:24:46;9.10;99.90
1221;DHT22;600;48.044;7.878;2022-12-05T15:27:13;9.00;99.90
1221;DHT22;600;48.044;7.878;2022-12-05T15:29:41;8.90;99.90
1221;DHT22;600;48.044;7.878;2022-12-05T15:32:15;8.80;99.90
1221;DHT22;600;48.044;7.878;2022-12-05T15:34:47;8.70;99.90
1221;DHT22;600;48.044;7.878;2022-12-05T15:37:19;8.80;99.90
1221;DHT22;600;48.044;7.878;2022-12-05T15:39:53;8.80;99.90
1221;DHT22;600;48.044;7.878;2022-12-05T15:42:22;8.80;99.90
1221;DHT22;600;48.044;7.878;2022-12-05T15:44:49;8.90;99.90
1221;DHT22;600;48.044;7.878;2022-12-05T15:47:20;8.90;99.90
1221;DHT22;600;48.044;7.878;2022-12-05T15:49:48;8.90;99.90
1221;DHT22;600;48.044;7.878;2022-12-05T15:52:23;8.90;99.90
1221;DHT22;600;48.044;7.878;2022-12-05T15:54:53;8.70;99.90
1221;DHT22;600;48.044;7.878;2022-12-05T15:57:24;8.70;99.90
1221;DHT22;600;48.044;7.878;2022-12-05T15:59:55;8.60;99.90
1221;DHT22;600;48.044;7.878;2022-12-05T16:02:27;8.60;99.90
1221;DHT22;600;48.044;7.878;2022-12-05T16:04:59;8.60;99.90
1221;DHT22;600;48.044;7.878;2022-12-05T16:07:28;8.60;99.90
1221;DHT22;600;48.044;7.878;2022-12-05T16:09:58;8.70;99.90
1221;DHT22;600;48.044;7.878;2022-12-05T16:12:32;8.80;99.90
1221;DHT22;600;48.044;7.878;2022-12-05T16:15:02;8.90;99.90
1221;DHT22;600;48.044;7.878;2022-12-05T16:17:39;9.00;99.90
1221;DHT22;600;48.044;7.878;2022-12-05T16:20:11;9.00;99.90
1221;DHT22;600;48.044;7.878;2022-12-05T16:22:47;9.10;99.90
1221;DHT22;600;48.044;7.878;2022-12-05T16:25:17;9.20;99.90
1221;DHT22;600;48.044;7.878;2022-12-05T16:27:59;9.30;99.90
1221;DHT22;600;48.044;7.878;2022-12-05T16:30:27;9.20;99.90
1221;DHT22;600;48.044;7.878;2022-12-05T16:36:16;9.30;99.90
1221;DHT22;600;48.044;7.878;2022-12-05T16:42:22;9.20;99.90
1221;DHT22;600;48.044;7.878;2022-12-05T16:44:57;9.10;99.90
1221;DHT22;600;48.044;7.878;2022-12-05T16:47:56;9.10;99.90
1221;DHT22;600;48.044;7.878;2022-12-05T16:50:28;9.10;99.90
1221;DHT22;600;48.044;7.878;2022-12-05T16:53:12;9.10;99.90
1221;DHT22;600;48.044;7.878;2022-12-05T16:55:41;9.10;99.90
1221;DHT22;600;48.044;7.878;2022-12-05T16:58:14;9.00;99.90
1221;DHT22;600;48.044;7.878;2022-12-05T17:00:43;9.00;99.90
1221;DHT22;600;48.044;7.878;2022-12-05T17:03:11;9.10;99.90
1221;DHT22;600;48.044;7.878;2022-12-05T17:05:38;9.00;99.90
1221;DHT22;600;48.044;7.878;2022-12-05T17:08:05;9.00;99.90
1221;DHT22;600;48.044;7.878;2022-12-05T17:10:32;9.00;99.90
1221;DHT22;600;48.044;7.878;2022-12-05T17:12:59;9.00;99.90
1221;DHT22;600;48.044;7.878;2022-12-05T17:15:29;9.00;99.90
1221;DHT22;600;48.044;7.878;2022-12-05T17:17:57;8.90;99.90
1221;DHT22;600;48.044;7.878;2022-12-05T17:20:24;8.90;99.90
1221;DHT22;600;48.044;7.878;2022-12-05T17:22:51;8.90;99.90
1221;DHT22;600;48.044;7.878;2022-12-05T17:25:25;8.90;99.90
1221;DHT22;600;48.044;7.878;2022-12-05T17:27:52;8.90;99.90
1221;DHT22;600;48.044;7.878;2022-12-05T17:30:19;8.90;99.90
1221;DHT22;600;48.044;7.878;2022-12-05T17:32:47;8.80;99.90
1221;DHT22;600;48.044;7.878;2022-12-05T17:35:15;8.80;99.90
1221;DHT22;600;48.044;7.878;2022-12-05T17:37:42;8.80;99.90
1221;DHT22;600;48.044;7.878;2022-12-05T17:40:10;8.80;99.90
1221;DHT22;600;48.044;7.878;2022-12-05T17:42:37;8.80;99.90
1221;DHT22;600;48.044;7.878;2022-12-05T17:45:05;8.80;99.90
1221;DHT22;600;48.044;7.878;2022-12-05T17:47:34;8.80;99.90
1221;DHT22;600;48.044;7.878;2022-12-05T17:50:03;8.70;99.90
1221;DHT22;600;48.044;7.878;2022-12-05T17:52:31;8.70;99.90
1221;DHT22;600;48.044;7.878;2022-12-05T17:54:58;8.70;99.90
1221;DHT22;600;48.044;7.878;2022-12-05T17:57:25;8.70;99.90
1221;DHT22;600;48.044;7.878;2022-12-05T17:59:52;8.70;99.90
1221;DHT22;600;48.044;7.878;2022-12-05T18:02:19;8.70;99.90
1221;DHT22;600;48.044;7.878;2022-12-05T18:04:45;8.60;99.90
1221;DHT22;600;48.044;7.878;2022-12-05T18:07:14;8.60;99.90
1221;DHT22;600;48.044;7.878;2022-12-05T18:09:41;8.60;99.90
1221;DHT22;600;48.044;7.878;2022-12-05T18:12:08;8.60;99.90
1221;DHT22;600;48.044;7.878;2022-12-05T18:14:35;8.60;99.90
1221;DHT22;600;48.044;7.878;2022-12-05T18:17:03;8.50;99.90
1221;DHT22;600;48.044;7.878;2022-12-05T18:19:30;8.50;99.90
1221;DHT22;600;48.044;7.878;2022-12-05T18:21:57;8.50;99.90
1221;DHT22;600;48.044;7.878;2022-12-05T18:24:25;8.50;99.90
1221;DHT22;600;48.044;7.878;2022-12-05T18:26:52;8.50;99.90
1221;DHT22;600;48.044;7.878;2022-12-05T18:29:20;8.50;99.90
1221;DHT22;600;48.044;7.878;2022-12-05T18:31:47;8.50;99.90
1221;DHT22;600;48.044;7.878;2022-12-05T18:34:13;8.50;99.90
1221;DHT22;600;48.044;7.878;2022-12-05T18:36:40;8.50;99.90
1221;DHT22;600;48.044;7.878;2022-12-05T18:39:11;8.50;99.90
1221;DHT22;600;48.044;7.878;2022-12-05T18:41:40;8.40;99.90
1221;DHT22;600;48.044;7.878;2022-12-05T18:44:07;8.50;99.90
1221;DHT22;600;48.044;7.878;2022-12-05T18:46:34;8.50;99.90
1221;DHT22;600;48.044;7.878;2022-12-05T18:49:02;8.50;99.90
1221;DHT22;600;48.044;7.878;2022-12-05T18:51:29;8.50;99.90
1221;DHT22;600;48.044;7.878;2022-12-05T18:53:56;8.50;99.90
1221;DHT22;600;48.044;7.878;2022-12-05T18:56:25;8.50;99.90
1221;DHT22;600;48.044;7.878;2022-12-05T18:58:54;8.50;99.90
1221;DHT22;600;48.044;7.878;2022-12-05T19:01:22;8.50;99.90
1221;DHT22;600;48.044;7.878;2022-12-05T19:03:49;8.50;99.90
1221;DHT22;600;48.044;7.878;2022-12-05T19:06:17;8.60;99.90
1221;DHT22;600;48.044;7.878;2022-12-05T19:08:45;8.60;99.90
1221;DHT22;600;48.044;7.878;2022-12-05T19:11:13;8.50;99.90
1221;DHT22;600;48.044;7.878;2022-12-05T19:13:40;8.50;99.90
1221;DHT22;600;48.044;7.878;2022-12-05T19:16:11;8.50;99.90
1221;DHT22;600;48.044;7.878;2022-12-05T19:18:39;8.40;99.90
1221;DHT22;600;48.044;7.878;2022-12-05T19:21:06;8.40;99.90
1221;DHT22;600;48.044;7.878;2022-12-05T19:23:33;8.30;99.90
1221;DHT22;600;48.044;7.878;2022-12-05T19:26:00;8.40;99.90
1221;DHT22;600;48.044;7.878;2022-12-05T19:28:27;8.40;99.90
1221;DHT22;600;48.044;7.878;2022-12-05T19:30:58;8.30;99.90
1221;DHT22;600;48.044;7.878;2022-12-05T19:33:30;8.30;99.90
1221;DHT22;600;48.044;7.878;2022-12-05T19:36:01;8.30;99.90
1221;DHT22;600;48.044;7.878;2022-12-05T19:38:30;8.20;99.90
1221;DHT22;600;48.044;7.878;2022-12-05T19:40:57;8.20;99.90
1221;DHT22;600;48.044;7.878;2022-12-05T19:43:24;8.20;99.90
1221;DHT22;600;48.044;7.878;2022-12-05T19:45:53;8.20;99.90
1221;DHT22;600;48.044;7.878;2022-12-05T19:48:19;8.10;99.90
1221;DHT22;600;48.044;7.878;2022-12-05T19:50:53;8.10;99.90
1221;DHT22;600;48.044;7.878;2022-12-05T19:53:20;8.10;99.90
1221;DHT22;600;48.044;7.878;2022-12-05T19:55:47;8.10;99.90
1221;DHT22;600;48.044;7.878;2022-12-05T19:58:13;8.00;99.90
1221;DHT22;600;48.044;7.878;2022-12-05T20:00:40;8.00;99.90
1221;DHT22;600;48.044;7.878;2022-12-05T20:03:07;7.90;99.90
1221;DHT22;600;48.044;7.878;2022-12-05T20:05:34;7.90;99.90
1221;DHT22;600;48.044;7.878;2022-12-05T20:08:02;7.90;99.90
1221;DHT22;600;48.044;7.878;2022-12-05T20:10:29;7.80;99.90
1221;DHT22;600;48.044;7.878;2022-12-05T20:12:56;7.80;99.90
1221;DHT22;600;48.044;7.878;2022-12-05T20:15:22;7.70;99.90
1221;DHT22;600;48.044;7.878;2022-12-05T20:17:49;7.70;99.90
1221;DHT22;600;48.044;7.878;2022-12-05T20:20:16;7.70;99.90
1221;DHT22;600;48.044;7.878;2022-12-05T20:22:43;7.60;99.90
1221;DHT22;600;48.044;7.878;2022-12-05T20:25:11;7.60;99.90
1221;DHT22;600;48.044;7.878;2022-12-05T20:27:38;7.60;99.90
1221;DHT22;600;48.044;7.878;2022-12-05T20:30:06;7.60;99.90
1221;DHT22;600;48.044;7.878;2022-12-05T20:32:33;7.60;99.90
1221;DHT22;600;48.044;7.878;2022-12-05T20:35:00;7.70;99.90
1221;DHT22;600;48.044;7.878;2022-12-05T20:37:26;7.70;99.90
1221;DHT22;600;48.044;7.878;2022-12-05T20:39:53;7.70;99.90
1221;DHT22;600;48.044;7.878;2022-12-05T20:42:21;7.70;99.90
1221;DHT22;600;48.044;7.878;2022-12-05T20:44:48;7.70;99.90
1221;DHT22;600;48.044;7.878;2022-12-05T20:47:15;7.60;99.90
1221;DHT22;600;48.044;7.878;2022-12-05T20:49:41;7.60;99.90
1221;DHT22;600;48.044;7.878;2022-12-05T20:52:08;7.60;99.90
1221;DHT22;600;48.044;7.878;2022-12-05T20:54:35;7.50;99.90
1221;DHT22;600;48.044;7.878;2022-12-05T20:57:02;7.50;99.90
1221;DHT22;600;48.044;7.878;2022-12-05T20:59:30;7.40;99.90
1221;DHT22;600;48.044;7.878;2022-12-05T21:01:57;7.40;99.90
1221;DHT22;600;48.044;7.878;2022-12-05T21:04:23;7.40;99.90
1221;DHT22;600;48.044;7.878;2022-12-05T21:06:50;7.30;99.90
1221;DHT22;600;48.044;7.878;2022-12-05T21:09:17;7.30;99.90
1221;DHT22;600;48.044;7.878;2022-12-05T21:11:51;7.30;99.90
1221;DHT22;600;48.044;7.878;2022-12-05T21:14:18;7.30;99.90
1221;DHT22;600;48.044;7.878;2022-12-05T21:16:46;7.20;99.90
1221;DHT22;600;48.044;7.878;2022-12-05T21:19:13;7.20;99.90
1221;DHT22;600;48.044;7.878;2022-12-05T21:21:40;7.20;99.90
1221;DHT22;600;48.044;7.878;2022-12-05T21:24:08;7.20;99.90
1221;DHT22;600;48.044;7.878;2022-12-05T21:26:35;7.20;99.90
1221;DHT22;600;48.044;7.878;2022-12-05T21:29:03;7.20;99.90
1221;DHT22;600;48.044;7.878;2022-12-05T21:31:32;7.10;99.90
1221;DHT22;600;48.044;7.878;2022-12-05T21:34:02;7.10;99.90
1221;DHT22;600;48.044;7.878;2022-12-05T21:36:31;7.10;99.90
1221;DHT22;600;48.044;7.878;2022-12-05T21:38:58;7.10;99.90
1221;DHT22;600;48.044;7.878;2022-12-05T21:41:25;7.10;99.90
1221;DHT22;600;48.044;7.878;2022-12-05T21:43:52;7.10;99.90
1221;DHT22;600;48.044;7.878;2022-12-05T21:46:19;7.10;99.90
1221;DHT22;600;48.044;7.878;2022-12-05T21:48:46;7.10;99.90
1221;DHT22;600;48.044;7.878;2022-12-05T21:51:14;7.10;99.90
1221;DHT22;600;48.044;7.878;2022-12-05T21:53:41;7.10;99.90
1221;DHT22;600;48.044;7.878;2022-12-05T21:56:10;7.10;99.90
1221;DHT22;600;48.044;7.878;2022-12-05T21:58:37;7.10;99.90
1221;DHT22;600;48.044;7.878;2022-12-05T22:01:04;7.10;99.90
1221;DHT22;600;48.044;7.878;2022-12-05T22:03:31;7.10;99.90
1221;DHT22;600;48.044;7.878;2022-12-05T22:05:59;7.00;99.90
1221;DHT22;600;48.044;7.878;2022-12-05T22:08:28;7.00;99.90
1221;DHT22;600;48.044;7.878;2022-12-05T22:10:58;7.00;99.90
1221;DHT22;600;48.044;7.878;2022-12-05T22:13:28;7.00;99.90
1221;DHT22;600;48.044;7.878;2022-12-05T22:15:56;6.90;99.90
1221;DHT22;600;48.044;7.878;2022-12-05T22:18:23;6.90;99.90
1221;DHT22;600;48.044;7.878;2022-12-05T22:20:54;6.90;99.90
1221;DHT22;600;48.044;7.878;2022-12-05T22:23:21;6.90;99.90
1221;DHT22;600;48.044;7.878;2022-12-05T22:25:56;6.90;99.90
1221;DHT22;600;48.044;7.878;2022-12-05T22:28:23;6.90;99.90
1221;DHT22;600;48.044;7.878;2022-12-05T22:30:49;6.90;99.90
1221;DHT22;600;48.044;7.878;2022-12-05T22:33:16;6.90;99.90
1221;DHT22;600;48.044;7.878;2022-12-05T22:35:49;6.90;99.90
1221;DHT22;600;48.044;7.878;2022-12-05T22:38:16;6.80;99.90
1221;DHT22;600;48.044;7.878;2022-12-05T22:40:43;6.80;99.90
1221;DHT22;600;48.044;7.878;2022-12-05T22:43:11;6.80;99.90
1221;DHT22;600;48.044;7.878;2022-12-05T22:45:37;6.80;99.90
1221;DHT22;600;48.044;7.878;2022-12-05T22:50:28;6.80;99.90
1221;DHT22;600;48.044;7.878;2022-12-05T22:52:55;6.70;99.90
1221;DHT22;600;48.044;7.878;2022-12-05T22:55:21;6.70;99.90
1221;DHT22;600;48.044;7.878;2022-12-05T22:57:48;6.70;99.90
1221;DHT22;600;48.044;7.878;2022-12-05T23:00:15;6.70;99.90
1221;DHT22;600;48.044;7.878;2022-12-05T23:02:42;6.70;99.90
1221;DHT22;600;48.044;7.878;2022-12-05T23:05:09;6.70;99.90
1221;DHT22;600;48.044;7.878;2022-12-05T23:07:37;6.70;99.90
1221;DHT22;600;48.044;7.878;2022-12-05T23:10:05;6.70;99.90
1221;DHT22;600;48.044;7.878;2022-12-05T23:12:32;6.70;99.90
1221;DHT22;600;48.044;7.878;2022-12-05T23:14:59;6.60;99.90
1221;DHT22;600;48.044;7.878;2022-12-05T23:17:26;6.60;99.90
1221;DHT22;600;48.044;7.878;2022-12-05T23:19:53;6.60;99.90
1221;DHT22;600;48.044;7.878;2022-12-05T23:22:20;6.60;99.90
1221;DHT22;600;48.044;7.878;2022-12-05T23:24:48;6.60;99.90
1221;DHT22;600;48.044;7.878;2022-12-05T23:27:15;6.60;99.90
1221;DHT22;600;48.044;7.878;2022-12-05T23:29:43;6.60;99.90
1221;DHT22;600;48.044;7.878;2022-12-05T23:32:10;6.60;99.90
1221;DHT22;600;48.044;7.878;2022-12-05T23:34:37;6.50;99.90
1221;DHT22;600;48.044;7.878;2022-12-05T23:37:04;6.50;99.90
1221;DHT22;600;48.044;7.878;2022-12-05T23:39:31;6.50;99.90
1221;DHT22;600;48.044;7.878;2022-12-05T23:41:59;6.40;99.90
1221;DHT22;600;48.044;7.878;2022-12-05T23:44:26;6.40;99.90
